sensor_id;sensor_type;location;lat;lon;timestamp;temperature;humidity
18882;DHT22;9573;50.948;11.600;2022-11-18T05:22:43;6.20;99.90
18882;DHT22;9573;50.948;11.600;2022-11-18T05:25:11;6.20;99.90
18882;DHT22;9573;50.948;11.600;2022-11-18T05:27:38;6.20;99.90
18882;DHT22;9573;50.948;11.600;2022-11-18T05:30:06;6.30;99.90
18882;DHT22;9573;50.948;11.600;2022-11-18T05:32:33;6.40;99.90
18882;DHT22;9573;50.948;11.600;2022-11-18T05:35:00;6.50;99.90
18882;DHT22;9573;50.948;11.600;2022-11-18T05:37:27;6.60;99.90
18882;DHT22;9573;50.948;11.600;2022-11-18T05:39:59;6.70;99.90
18882;DHT22;9573;50.948;11.600;2022-11-18T05:42:26;6.80;99.90
18882;DHT22;9573;50.948;11.600;2022-11-18T05:45:10;6.90;99.90
18882;DHT22;9573;50.948;11.600;2022-11-18T05:47:37;7.00;99.90
18882;DHT22;9573;50.948;11.600;2022-11-18T05:50:18;7.00;99.90
18882;DHT22;9573;50.948;11.600;2022-11-18T05:52:45;7.00;99.90
18882;DHT22;9573;50.948;11.600;2022-11-18T05:55:15;7.00;99.90
18882;DHT22;9573;50.948;11.600;2022-11-18T05:57:43;7.00;99.90
18882;DHT22;9573;50.948;11.600;2022-11-18T06:00:11;7.00;99.90
18882;DHT22;9573;50.948;11.600;2022-11-18T06:02:40;7.00;99.90
18882;DHT22;9573;50.948;11.600;2022-11-18T06:05:09;7.00;99.90
18882;DHT22;9573;50.948;11.600;2022-11-18T06:07:39;7.00;99.90
18882;DHT22;9573;50.948;11.600;2022-11-18T06:10:09;7.00;99.90
18882;DHT22;9573;50.948;11.600;2022-11-18T06:12:41;6.90;99.90
18882;DHT22;9573;50.948;11.600;2022-11-18T06:15:11;6.80;99.90
18882;DHT22;9573;50.948;11.600;2022-11-18T14:02:39;2.40;99.90
18882;DHT22;9573;50.948;11.600;2022-11-18T14:05:17;2.30;99.90
18882;DHT22;9573;50.948;11.600;2022-11-18T14:07:55;2.30;99.90
18882;DHT22;9573;50.948;11.600;2022-11-18T14:10:34;2.30;99.90
18882;DHT22;9573;50.948;11.600;2022-11-18T14:13:17;2.40;99.90
18882;DHT22;9573;50.948;11.600;2022-11-18T14:15:49;2.40;99.90
18882;DHT22;9573;50.948;11.600;2022-11-18T14:18:26;2.40;99.90
18882;DHT22;9573;50.948;11.600;2022-11-18T14:20:56;2.40;99.90
18882;DHT22;9573;50.948;11.600;2022-11-18T14:23:29;2.50;99.90
18882;DHT22;9573;50.948;11.600;2022-11-18T14:25:58;2.50;99.90
18882;DHT22;9573;50.948;11.600;2022-11-18T14:28:29;2.50;99.90
18882;DHT22;9573;50.948;11.600;2022-11-18T14:31:03;2.50;99.90
18882;DHT22;9573;50.948;11.600;2022-11-18T14:33:34;2.40;99.90
18882;DHT22;9573;50.948;11.600;2022-11-18T14:36:08;2.40;99.90
18882;DHT22;9573;50.948;11.600;2022-11-18T14:38:43;2.40;99.90
18882;DHT22;9573;50.948;11.600;2022-11-18T14:41:13;2.40;99.90
18882;DHT22;9573;50.948;11.600;2022-11-18T14:44:01;2.40;99.90
18882;DHT22;9573;50.948;11.600;2022-11-18T14:46:29;2.40;99.90
18882;DHT22;9573;50.948;11.600;2022-11-18T14:49:01;2.40;99.90
18882;DHT22;9573;50.948;11.600;2022-11-18T14:51:29;2.40;99.90
18882;DHT22;9573;50.948;11.600;2022-11-18T14:53:56;2.40;99.90
18882;DHT22;9573;50.948;11.600;2022-11-18T14:56:28;2.30;99.90
18882;DHT22;9573;50.948;11.600;2022-11-18T14:58:56;2.30;99.90
18882;DHT22;9573;50.948;11.600;2022-11-18T15:01:24;2.20;99.90
18882;DHT22;9573;50.948;11.600;2022-11-18T15:03:54;2.20;99.90
18882;DHT22;9573;50.948;11.600;2022-11-18T15:06:22;2.20;99.90
18882;DHT22;9573;50.948;11.600;2022-11-18T15:08:51;2.20;99.90
18882;DHT22;9573;50.948;11.600;2022-11-18T15:11:18;2.20;99.90
18882;DHT22;9573;50.948;11.600;2022-11-18T15:13:46;2.20;99.90
18882;DHT22;9573;50.948;11.600;2022-11-18T15:16:15;2.20;99.90
18882;DHT22;9573;50.948;11.600;2022-11-18T15:18:44;2.10;99.90
18882;DHT22;9573;50.948;11.600;2022-11-18T15:21:13;2.10;99.90
18882;DHT22;9573;50.948;11.600;2022-11-18T15:23:42;2.00;99.90
18882;DHT22;9573;50.948;11.600;2022-11-18T15:26:15;1.90;99.90
18882;DHT22;9573;50.948;11.600;2022-11-18T15:28:44;1.90;99.90
18882;DHT22;9573;50.948;11.600;2022-11-18T15:31:12;1.90;99.90
18882;DHT22;9573;50.948;11.600;2022-11-18T15:33:39;1.90;99.90
18882;DHT22;9573;50.948;11.600;2022-11-18T15:36:11;1.80;99.90
18882;DHT22;9573;50.948;11.600;2022-11-18T15:38:39;1.90;99.90
18882;DHT22;9573;50.948;11.600;2022-11-18T15:41:13;1.80;99.90
18882;DHT22;9573;50.948;11.600;2022-11-18T15:43:42;1.90;99.90
18882;DHT22;9573;50.948;11.600;2022-11-18T15:46:09;1.80;99.90
18882;DHT22;9573;50.948;11.600;2022-11-18T15:48:37;1.90;99.90
18882;DHT22;9573;50.948;11.600;2022-11-18T15:51:04;1.80;99.90
18882;DHT22;9573;50.948;11.600;2022-11-18T15:53:32;1.70;99.90
18882;DHT22;9573;50.948;11.600;2022-11-18T15:56:25;1.70;99.90
18882;DHT22;9573;50.948;11.600;2022-11-18T15:58:54;1.70;99.90
18882;DHT22;9573;50.948;11.600;2022-11-18T16:01:26;1.70;99.90
18882;DHT22;9573;50.948;11.600;2022-11-18T16:03:54;1.70;99.90
18882;DHT22;9573;50.948;11.600;2022-11-18T16:06:22;1.60;99.90
18882;DHT22;9573;50.948;11.600;2022-11-18T16:08:50;1.60;99.90
18882;DHT22;9573;50.948;11.600;2022-11-18T16:11:18;1.60;99.90
18882;DHT22;9573;50.948;11.600;2022-11-18T16:14:05;1.60;99.90
18882;DHT22;9573;50.948;11.600;2022-11-18T16:16:34;1.50;99.90
18882;DHT22;9573;50.948;11.600;2022-11-18T16:19:04;1.50;99.90
18882;DHT22;9573;50.948;11.600;2022-11-18T16:21:34;1.40;99.90
18882;DHT22;9573;50.948;11.600;2022-11-18T16:24:04;1.40;99.90
18882;DHT22;9573;50.948;11.600;2022-11-18T16:26:34;1.30;99.90
18882;DHT22;9573;50.948;11.600;2022-11-18T16:29:04;1.20;99.90
18882;DHT22;9573;50.948;11.600;2022-11-18T16:31:31;1.20;99.90
18882;DHT22;9573;50.948;11.600;2022-11-18T16:34:11;1.10;99.90
18882;DHT22;9573;50.948;11.600;2022-11-18T16:36:40;1.10;99.90
18882;DHT22;9573;50.948;11.600;2022-11-18T16:39:09;1.10;99.90
18882;DHT22;9573;50.948;11.600;2022-11-18T16:41:38;1.00;99.90
18882;DHT22;9573;50.948;11.600;2022-11-18T16:44:10;0.90;99.90
18882;DHT22;9573;50.948;11.600;2022-11-18T16:46:39;0.90;99.90
18882;DHT22;9573;50.948;11.600;2022-11-18T16:49:11;0.80;99.90
18882;DHT22;9573;50.948;11.600;2022-11-18T16:51:40;0.70;99.90
18882;DHT22;9573;50.948;11.600;2022-11-18T16:54:14;0.70;99.90
18882;DHT22;9573;50.948;11.600;2022-11-18T16:56:44;0.60;99.90
18882;DHT22;9573;50.948;11.600;2022-11-18T16:59:15;0.60;99.90
18882;DHT22;9573;50.948;11.600;2022-11-18T17:01:43;0.60;99.90
18882;DHT22;9573;50.948;11.600;2022-11-18T17:04:10;0.60;99.90
18882;DHT22;9573;50.948;11.600;2022-11-18T17:06:38;0.60;99.90
18882;DHT22;9573;50.948;11.600;2022-11-18T17:09:06;0.60;99.90
18882;DHT22;9573;50.948;11.600;2022-11-18T17:11:33;0.60;99.90
18882;DHT22;9573;50.948;11.600;2022-11-18T17:14:01;0.50;99.90
18882;DHT22;9573;50.948;11.600;2022-11-18T17:16:29;0.50;99.90
18882;DHT22;9573;50.948;11.600;2022-11-18T17:18:58;0.50;99.90
18882;DHT22;9573;50.948;11.600;2022-11-18T17:21:27;0.50;99.90
18882;DHT22;9573;50.948;11.600;2022-11-18T17:23:55;0.60;99.90
18882;DHT22;9573;50.948;11.600;2022-11-18T17:26:24;0.50;99.90
18882;DHT22;9573;50.948;11.600;2022-11-18T17:28:54;0.60;99.90
18882;DHT22;9573;50.948;11.600;2022-11-18T17:31:25;0.60;99.90
18882;DHT22;9573;50.948;11.600;2022-11-18T17:33:55;0.60;99.90
18882;DHT22;9573;50.948;11.600;2022-11-18T17:36:26;0.60;99.90
18882;DHT22;9573;50.948;11.600;2022-11-18T17:38:55;0.70;99.90
18882;DHT22;9573;50.948;11.600;2022-11-18T17:41:26;0.70;99.90
18882;DHT22;9573;50.948;11.600;2022-11-18T17:44:13;0.70;99.90
18882;DHT22;9573;50.948;11.600;2022-11-18T17:46:43;1.40;99.90
18882;DHT22;9573;50.948;11.600;2022-11-18T17:49:15;0.70;99.90
18882;DHT22;9573;50.948;11.600;2022-11-18T17:51:43;0.70;99.90
18882;DHT22;9573;50.948;11.600;2022-11-18T17:54:12;0.70;99.90
18882;DHT22;9573;50.948;11.600;2022-11-18T17:56:39;0.70;99.90
18882;DHT22;9573;50.948;11.600;2022-11-18T17:59:07;0.70;99.90
18882;DHT22;9573;50.948;11.600;2022-11-18T18:01:35;0.70;99.90
18882;DHT22;9573;50.948;11.600;2022-11-18T18:04:03;0.60;99.90
18882;DHT22;9573;50.948;11.600;2022-11-18T18:06:32;0.70;99.90
18882;DHT22;9573;50.948;11.600;2022-11-18T18:08:59;0.70;99.90
18882;DHT22;9573;50.948;11.600;2022-11-18T18:11:27;0.70;99.90
18882;DHT22;9573;50.948;11.600;2022-11-18T18:13:54;0.80;99.90
18882;DHT22;9573;50.948;11.600;2022-11-18T18:16:41;0.70;99.90
18882;DHT22;9573;50.948;11.600;2022-11-18T18:19:11;0.80;99.90
18882;DHT22;9573;50.948;11.600;2022-11-18T18:21:40;0.80;99.90
18882;DHT22;9573;50.948;11.600;2022-11-18T18:24:08;0.80;99.90
18882;DHT22;9573;50.948;11.600;2022-11-18T18:26:36;0.70;99.90
18882;DHT22;9573;50.948;11.600;2022-11-18T18:29:03;0.70;99.90
18882;DHT22;9573;50.948;11.600;2022-11-18T18:31:32;0.70;99.90
18882;DHT22;9573;50.948;11.600;2022-11-18T18:34:00;0.70;99.90
18882;DHT22;9573;50.948;11.600;2022-11-18T18:36:28;0.70;99.90
18882;DHT22;9573;50.948;11.600;2022-11-18T18:38:57;0.70;99.90
18882;DHT22;9573;50.948;11.600;2022-11-18T18:41:26;0.80;99.90
18882;DHT22;9573;50.948;11.600;2022-11-18T18:43:53;0.80;99.90
18882;DHT22;9573;50.948;11.600;2022-11-18T18:46:22;0.80;99.90
18882;DHT22;9573;50.948;11.600;2022-11-18T18:49:01;0.80;99.90
18882;DHT22;9573;50.948;11.600;2022-11-18T18:51:30;0.80;99.90
18882;DHT22;9573;50.948;11.600;2022-11-18T18:54:02;0.70;99.90
18882;DHT22;9573;50.948;11.600;2022-11-18T18:56:30;0.70;99.90
18882;DHT22;9573;50.948;11.600;2022-11-18T18:58:58;0.60;99.90
18882;DHT22;9573;50.948;11.600;2022-11-18T19:01:26;0.70;99.90
18882;DHT22;9573;50.948;11.600;2022-11-18T19:03:54;0.70;99.90
18882;DHT22;9573;50.948;11.600;2022-11-18T19:06:24;0.60;99.90
18882;DHT22;9573;50.948;11.600;2022-11-18T19:08:53;0.60;99.90
18882;DHT22;9573;50.948;11.600;2022-11-18T19:11:22;0.70;99.90
18882;DHT22;9573;50.948;11.600;2022-11-18T19:14:12;0.70;99.90
18882;DHT22;9573;50.948;11.600;2022-11-18T19:16:40;0.70;99.90
18882;DHT22;9573;50.948;11.600;2022-11-18T19:19:09;0.70;99.90
18882;DHT22;9573;50.948;11.600;2022-11-18T19:21:38;0.80;99.90
18882;DHT22;9573;50.948;11.600;2022-11-18T19:24:06;-0.80;99.90
18882;DHT22;9573;50.948;11.600;2022-11-18T19:26:38;0.80;99.90
18882;DHT22;9573;50.948;11.600;2022-11-18T19:29:05;0.80;99.90
18882;DHT22;9573;50.948;11.600;2022-11-18T19:31:32;0.80;99.90
18882;DHT22;9573;50.948;11.600;2022-11-18T19:33:59;0.80;99.90
18882;DHT22;9573;50.948;11.600;2022-11-18T19:36:26;0.90;99.90
18882;DHT22;9573;50.948;11.600;2022-11-18T19:38:53;0.90;99.90
18882;DHT22;9573;50.948;11.600;2022-11-18T19:41:20;0.90;99.90
18882;DHT22;9573;50.948;11.600;2022-11-18T19:43:49;0.90;99.90
18882;DHT22;9573;50.948;11.600;2022-11-18T19:46:16;0.90;99.90
18882;DHT22;9573;50.948;11.600;2022-11-18T19:48:45;0.90;99.90
18882;DHT22;9573;50.948;11.600;2022-11-18T19:51:14;0.90;99.90
18882;DHT22;9573;50.948;11.600;2022-11-18T19:53:42;0.90;99.90
18882;DHT22;9573;50.948;11.600;2022-11-18T19:56:11;0.90;99.90
18882;DHT22;9573;50.948;11.600;2022-11-18T19:58:40;1.00;99.90
18882;DHT22;9573;50.948;11.600;2022-11-18T20:01:11;1.00;99.90
18882;DHT22;9573;50.948;11.600;2022-11-18T20:03:40;0.90;99.90
18882;DHT22;9573;50.948;11.600;2022-11-18T20:06:08;0.90;99.90
18882;DHT22;9573;50.948;11.600;2022-11-18T20:08:37;0.90;99.90
18882;DHT22;9573;50.948;11.600;2022-11-18T20:11:08;0.90;99.90
18882;DHT22;9573;50.948;11.600;2022-11-18T20:13:36;0.90;99.90
18882;DHT22;9573;50.948;11.600;2022-11-18T20:16:05;1.00;99.90
18882;DHT22;9573;50.948;11.600;2022-11-18T20:18:36;1.00;99.90
18882;DHT22;9573;50.948;11.600;2022-11-18T20:21:05;1.10;99.90
18882;DHT22;9573;50.948;11.600;2022-11-18T20:23:33;1.10;99.90
18882;DHT22;9573;50.948;11.600;2022-11-18T20:26:02;1.10;99.90
18882;DHT22;9573;50.948;11.600;2022-11-18T20:28:32;1.30;99.90
18882;DHT22;9573;50.948;11.600;2022-11-18T20:31:00;1.10;99.90
18882;DHT22;9573;50.948;11.600;2022-11-18T20:33:27;1.10;99.90
18882;DHT22;9573;50.948;11.600;2022-11-18T20:36:03;1.10;99.90
18882;DHT22;9573;50.948;11.600;2022-11-18T20:38:32;1.00;99.90
18882;DHT22;9573;50.948;11.600;2022-11-18T20:41:00;1.10;99.90
18882;DHT22;9573;50.948;11.600;2022-11-18T20:43:28;1.00;99.90
18882;DHT22;9573;50.948;11.600;2022-11-18T20:45:58;1.00;99.90
18882;DHT22;9573;50.948;11.600;2022-11-18T20:48:27;1.00;99.90
18882;DHT22;9573;50.948;11.600;2022-11-18T20:50:56;0.90;99.90
18882;DHT22;9573;50.948;11.600;2022-11-18T20:53:25;0.90;99.90
18882;DHT22;9573;50.948;11.600;2022-11-18T20:55:52;0.90;99.90
18882;DHT22;9573;50.948;11.600;2022-11-18T20:58:19;0.90;99.90
